sensor_id;sensor_type;location;lat;lon;timestamp;P1;durP1;ratioP1;P2;durP2;ratioP2
59786;SDS011;45672;51.612;5.536;2023-12-20T00:01:00;36.25;;;11.48;;
59786;SDS011;45672;51.612;5.536;2023-12-20T00:03:26;23.48;;;10.50;;
59786;SDS011;45672;51.612;5.536;2023-12-20T00:05:51;25.80;;;9.80;;
59786;SDS011;45672;51.612;5.536;2023-12-20T00:08:16;20.52;;;7.93;;
59786;SDS011;45672;51.612;5.536;2023-12-20T00:10:43;22.92;;;9.73;;
59786;SDS011;45672;51.612;5.536;2023-12-20T00:13:08;20.83;;;7.60;;
59786;SDS011;45672;51.612;5.536;2023-12-20T00:15:34;17.98;;;6.50;;
59786;SDS011;45672;51.612;5.536;2023-12-20T00:17:59;16.90;;;6.93;;
59786;SDS011;45672;51.612;5.536;2023-12-20T00:20:25;22.50;;;6.00;;
59786;SDS011;45672;51.612;5.536;2023-12-20T00:22:51;22.13;;;5.25;;
59786;SDS011;45672;51.612;5.536;2023-12-20T00:25:16;25.77;;;5.45;;
59786;SDS011;45672;51.612;5.536;2023-12-20T00:27:42;20.52;;;4.90;;
59786;SDS011;45672;51.612;5.536;2023-12-20T00:30:08;16.63;;;5.60;;
59786;SDS011;45672;51.612;5.536;2023-12-20T00:32:34;19.90;;;4.95;;
59786;SDS011;45672;51.612;5.536;2023-12-20T00:35:00;22.50;;;4.55;;
59786;SDS011;45672;51.612;5.536;2023-12-20T00:37:26;17.33;;;5.07;;
59786;SDS011;45672;51.612;5.536;2023-12-20T00:39:51;20.48;;;4.75;;
59786;SDS011;45672;51.612;5.536;2023-12-20T00:42:16;18.00;;;4.20;;
59786;SDS011;45672;51.612;5.536;2023-12-20T00:44:42;17.58;;;3.65;;
59786;SDS011;45672;51.612;5.536;2023-12-20T00:47:07;14.40;;;3.13;;
59786;SDS011;45672;51.612;5.536;2023-12-20T00:49:32;18.00;;;4.00;;
59786;SDS011;45672;51.612;5.536;2023-12-20T00:51:58;16.30;;;3.45;;
59786;SDS011;45672;51.612;5.536;2023-12-20T00:54:23;21.10;;;3.88;;
59786;SDS011;45672;51.612;5.536;2023-12-20T00:56:48;18.65;;;3.58;;
59786;SDS011;45672;51.612;5.536;2023-12-20T00:59:13;14.25;;;3.08;;
59786;SDS011;45672;51.612;5.536;2023-12-20T01:01:39;15.63;;;3.30;;
59786;SDS011;45672;51.612;5.536;2023-12-20T01:04:05;12.73;;;3.42;;
59786;SDS011;45672;51.612;5.536;2023-12-20T01:06:30;22.73;;;4.30;;
59786;SDS011;45672;51.612;5.536;2023-12-20T01:08:55;10.40;;;2.92;;
59786;SDS011;45672;51.612;5.536;2023-12-20T01:11:21;15.75;;;3.38;;
59786;SDS011;45672;51.612;5.536;2023-12-20T01:13:47;21.65;;;4.30;;
59786;SDS011;45672;51.612;5.536;2023-12-20T01:16:12;25.30;;;4.32;;
59786;SDS011;45672;51.612;5.536;2023-12-20T01:18:37;10.10;;;3.38;;
59786;SDS011;45672;51.612;5.536;2023-12-20T01:21:03;26.23;;;3.80;;
59786;SDS011;45672;51.612;5.536;2023-12-20T01:23:29;15.50;;;3.80;;
59786;SDS011;45672;51.612;5.536;2023-12-20T01:25:54;18.88;;;3.55;;
59786;SDS011;45672;51.612;5.536;2023-12-20T01:28:20;16.27;;;3.15;;
59786;SDS011;45672;51.612;5.536;2023-12-20T01:30:45;16.27;;;3.53;;
59786;SDS011;45672;51.612;5.536;2023-12-20T01:33:10;16.75;;;3.45;;
59786;SDS011;45672;51.612;5.536;2023-12-20T01:35:36;15.30;;;3.70;;
59786;SDS011;45672;51.612;5.536;2023-12-20T01:38:02;21.60;;;3.45;;
59786;SDS011;45672;51.612;5.536;2023-12-20T01:40:27;18.02;;;2.67;;
59786;SDS011;45672;51.612;5.536;2023-12-20T01:43:04;16.33;;;3.70;;
59786;SDS011;45672;51.612;5.536;2023-12-20T01:45:33;19.30;;;3.08;;
59786;SDS011;45672;51.612;5.536;2023-12-20T01:47:58;17.45;;;3.72;;
59786;SDS011;45672;51.612;5.536;2023-12-20T01:50:25;21.45;;;2.85;;
59786;SDS011;45672;51.612;5.536;2023-12-20T01:52:50;13.32;;;3.17;;
59786;SDS011;45672;51.612;5.536;2023-12-20T01:55:22;18.90;;;3.58;;
59786;SDS011;45672;51.612;5.536;2023-12-20T01:57:48;22.38;;;3.53;;
59786;SDS011;45672;51.612;5.536;2023-12-20T02:00:13;15.40;;;3.60;;
59786;SDS011;45672;51.612;5.536;2023-12-20T02:02:40;16.48;;;3.20;;
59786;SDS011;45672;51.612;5.536;2023-12-20T02:05:06;19.40;;;3.40;;
59786;SDS011;45672;51.612;5.536;2023-12-20T02:07:32;19.45;;;3.45;;
59786;SDS011;45672;51.612;5.536;2023-12-20T02:09:59;20.20;;;3.30;;
59786;SDS011;45672;51.612;5.536;2023-12-20T02:12:24;20.25;;;2.88;;
59786;SDS011;45672;51.612;5.536;2023-12-20T02:14:50;16.98;;;2.80;;
59786;SDS011;45672;51.612;5.536;2023-12-20T02:17:15;17.25;;;3.38;;
59786;SDS011;45672;51.612;5.536;2023-12-20T02:19:41;17.98;;;3.63;;
59786;SDS011;45672;51.612;5.536;2023-12-20T02:22:10;19.70;;;4.00;;
59786;SDS011;45672;51.612;5.536;2023-12-20T02:24:36;15.98;;;3.22;;
59786;SDS011;45672;51.612;5.536;2023-12-20T02:27:01;17.10;;;3.22;;
59786;SDS011;45672;51.612;5.536;2023-12-20T02:29:27;20.55;;;3.58;;
59786;SDS011;45672;51.612;5.536;2023-12-20T02:31:53;21.88;;;3.05;;
59786;SDS011;45672;51.612;5.536;2023-12-20T02:34:18;20.83;;;3.60;;
59786;SDS011;45672;51.612;5.536;2023-12-20T02:36:44;16.95;;;3.22;;
59786;SDS011;45672;51.612;5.536;2023-12-20T02:39:09;17.70;;;3.50;;
59786;SDS011;45672;51.612;5.536;2023-12-20T02:41:34;17.05;;;3.60;;
59786;SDS011;45672;51.612;5.536;2023-12-20T02:44:01;17.65;;;3.70;;
59786;SDS011;45672;51.612;5.536;2023-12-20T02:46:26;19.85;;;3.40;;
59786;SDS011;45672;51.612;5.536;2023-12-20T02:48:52;22.75;;;5.60;;
59786;SDS011;45672;51.612;5.536;2023-12-20T02:51:17;14.95;;;3.65;;
59786;SDS011;45672;51.612;5.536;2023-12-20T02:53:42;23.42;;;3.60;;
59786;SDS011;45672;51.612;5.536;2023-12-20T02:56:09;20.63;;;4.15;;
59786;SDS011;45672;51.612;5.536;2023-12-20T02:58:34;27.25;;;3.83;;
59786;SDS011;45672;51.612;5.536;2023-12-20T03:01:00;19.73;;;4.63;;
59786;SDS011;45672;51.612;5.536;2023-12-20T03:03:25;23.65;;;3.88;;
59786;SDS011;45672;51.612;5.536;2023-12-20T03:05:50;20.00;;;3.88;;
59786;SDS011;45672;51.612;5.536;2023-12-20T03:08:16;26.15;;;4.10;;
59786;SDS011;45672;51.612;5.536;2023-12-20T03:10:42;23.58;;;4.43;;
59786;SDS011;45672;51.612;5.536;2023-12-20T03:13:07;22.70;;;4.80;;
59786;SDS011;45672;51.612;5.536;2023-12-20T03:15:32;28.92;;;5.13;;
59786;SDS011;45672;51.612;5.536;2023-12-20T03:17:58;31.15;;;5.20;;
59786;SDS011;45672;51.612;5.536;2023-12-20T03:20:24;21.88;;;4.45;;
59786;SDS011;45672;51.612;5.536;2023-12-20T03:22:51;19.95;;;4.55;;
59786;SDS011;45672;51.612;5.536;2023-12-20T03:25:16;22.58;;;5.28;;
59786;SDS011;45672;51.612;5.536;2023-12-20T03:27:41;32.45;;;6.05;;
59786;SDS011;45672;51.612;5.536;2023-12-20T03:30:07;22.67;;;5.72;;
59786;SDS011;45672;51.612;5.536;2023-12-20T03:32:33;21.15;;;4.40;;
59786;SDS011;45672;51.612;5.536;2023-12-20T03:34:58;26.17;;;5.05;;
59786;SDS011;45672;51.612;5.536;2023-12-20T03:37:24;23.70;;;4.68;;
59786;SDS011;45672;51.612;5.536;2023-12-20T03:39:49;19.23;;;4.20;;
59786;SDS011;45672;51.612;5.536;2023-12-20T03:42:15;15.13;;;4.30;;
59786;SDS011;45672;51.612;5.536;2023-12-20T03:44:40;20.50;;;4.28;;
59786;SDS011;45672;51.612;5.536;2023-12-20T03:47:06;24.38;;;4.35;;
59786;SDS011;45672;51.612;5.536;2023-12-20T03:49:31;23.08;;;4.55;;
59786;SDS011;45672;51.612;5.536;2023-12-20T03:51:57;19.00;;;4.53;;
59786;SDS011;45672;51.612;5.536;2023-12-20T03:54:22;16.40;;;4.22;;
59786;SDS011;45672;51.612;5.536;2023-12-20T03:56:47;19.98;;;4.50;;
59786;SDS011;45672;51.612;5.536;2023-12-20T03:59:13;22.10;;;4.80;;
59786;SDS011;45672;51.612;5.536;2023-12-20T04:01:39;18.77;;;4.05;;
59786;SDS011;45672;51.612;5.536;2023-12-20T04:04:08;31.83;;;4.32;;
59786;SDS011;45672;51.612;5.536;2023-12-20T04:06:33;22.35;;;4.18;;
59786;SDS011;45672;51.612;5.536;2023-12-20T04:08:59;24.48;;;4.35;;
59786;SDS011;45672;51.612;5.536;2023-12-20T04:11:24;15.00;;;3.33;;
59786;SDS011;45672;51.612;5.536;2023-12-20T04:13:50;29.98;;;4.55;;
59786;SDS011;45672;51.612;5.536;2023-12-20T04:16:15;20.50;;;4.40;;
59786;SDS011;45672;51.612;5.536;2023-12-20T04:18:40;27.60;;;4.72;;
59786;SDS011;45672;51.612;5.536;2023-12-20T04:21:06;14.70;;;4.25;;
59786;SDS011;45672;51.612;5.536;2023-12-20T04:23:32;25.13;;;3.83;;
59786;SDS011;45672;51.612;5.536;2023-12-20T04:25:57;20.50;;;4.00;;
59786;SDS011;45672;51.612;5.536;2023-12-20T04:28:22;23.25;;;5.32;;
59786;SDS011;45672;51.612;5.536;2023-12-20T04:30:48;18.58;;;3.90;;
59786;SDS011;45672;51.612;5.536;2023-12-20T04:33:13;22.65;;;4.38;;
59786;SDS011;45672;51.612;5.536;2023-12-20T04:35:38;22.40;;;4.25;;
59786;SDS011;45672;51.612;5.536;2023-12-20T04:38:05;21.65;;;4.50;;
59786;SDS011;45672;51.612;5.536;2023-12-20T04:40:31;33.92;;;4.40;;
59786;SDS011;45672;51.612;5.536;2023-12-20T04:42:56;24.92;;;4.68;;
59786;SDS011;45672;51.612;5.536;2023-12-20T04:45:22;18.48;;;4.00;;
59786;SDS011;45672;51.612;5.536;2023-12-20T04:47:48;27.58;;;5.22;;
59786;SDS011;45672;51.612;5.536;2023-12-20T04:50:14;21.63;;;4.75;;
59786;SDS011;45672;51.612;5.536;2023-12-20T04:52:39;36.97;;;4.03;;
59786;SDS011;45672;51.612;5.536;2023-12-20T04:55:05;19.35;;;4.55;;
59786;SDS011;45672;51.612;5.536;2023-12-20T04:57:30;27.50;;;3.90;;
59786;SDS011;45672;51.612;5.536;2023-12-20T04:59:55;27.10;;;4.35;;
59786;SDS011;45672;51.612;5.536;2023-12-20T05:02:21;22.35;;;4.38;;
59786;SDS011;45672;51.612;5.536;2023-12-20T05:04:46;33.05;;;4.57;;
59786;SDS011;45672;51.612;5.536;2023-12-20T05:07:12;28.05;;;4.18;;
59786;SDS011;45672;51.612;5.536;2023-12-20T05:09:37;22.52;;;3.97;;
59786;SDS011;45672;51.612;5.536;2023-12-20T05:12:04;30.88;;;4.93;;
59786;SDS011;45672;51.612;5.536;2023-12-20T05:14:29;25.92;;;4.40;;
59786;SDS011;45672;51.612;5.536;2023-12-20T05:16:55;20.55;;;4.25;;
59786;SDS011;45672;51.612;5.536;2023-12-20T05:19:21;24.25;;;4.32;;
59786;SDS011;45672;51.612;5.536;2023-12-20T05:21:47;21.55;;;4.03;;
59786;SDS011;45672;51.612;5.536;2023-12-20T05:24:12;31.40;;;4.63;;
59786;SDS011;45672;51.612;5.536;2023-12-20T05:26:37;21.55;;;4.55;;
59786;SDS011;45672;51.612;5.536;2023-12-20T05:29:02;29.63;;;4.47;;
59786;SDS011;45672;51.612;5.536;2023-12-20T05:31:28;34.65;;;4.55;;
59786;SDS011;45672;51.612;5.536;2023-12-20T05:33:53;19.58;;;3.88;;
59786;SDS011;45672;51.612;5.536;2023-12-20T05:36:18;25.05;;;4.28;;
59786;SDS011;45672;51.612;5.536;2023-12-20T05:38:44;16.75;;;4.53;;
59786;SDS011;45672;51.612;5.536;2023-12-20T05:41:10;22.67;;;4.22;;
59786;SDS011;45672;51.612;5.536;2023-12-20T05:43:35;24.38;;;3.97;;
59786;SDS011;45672;51.612;5.536;2023-12-20T05:46:00;22.00;;;3.55;;
59786;SDS011;45672;51.612;5.536;2023-12-20T05:48:26;29.63;;;4.13;;
59786;SDS011;45672;51.612;5.536;2023-12-20T05:50:52;24.58;;;4.57;;
59786;SDS011;45672;51.612;5.536;2023-12-20T05:53:17;26.52;;;4.28;;
59786;SDS011;45672;51.612;5.536;2023-12-20T05:55:43;19.38;;;3.80;;
59786;SDS011;45672;51.612;5.536;2023-12-20T05:58:08;20.13;;;4.07;;
59786;SDS011;45672;51.612;5.536;2023-12-20T06:00:33;25.15;;;4.40;;
59786;SDS011;45672;51.612;5.536;2023-12-20T06:02:59;17.30;;;3.35;;
59786;SDS011;45672;51.612;5.536;2023-12-20T06:05:24;16.17;;;4.18;;
59786;SDS011;45672;51.612;5.536;2023-12-20T06:07:49;20.42;;;3.90;;
59786;SDS011;45672;51.612;5.536;2023-12-20T06:10:15;16.65;;;3.70;;
59786;SDS011;45672;51.612;5.536;2023-12-20T06:12:41;25.27;;;3.90;;
59786;SDS011;45672;51.612;5.536;2023-12-20T06:15:06;27.27;;;5.15;;
59786;SDS011;45672;51.612;5.536;2023-12-20T06:17:32;20.40;;;3.92;;
59786;SDS011;45672;51.612;5.536;2023-12-20T06:19:57;15.98;;;3.17;;
59786;SDS011;45672;51.612;5.536;2023-12-20T06:22:23;21.88;;;3.72;;
59786;SDS011;45672;51.612;5.536;2023-12-20T06:24:48;24.77;;;3.90;;
59786;SDS011;45672;51.612;5.536;2023-12-20T06:27:13;19.65;;;3.53;;
59786;SDS011;45672;51.612;5.536;2023-12-20T06:29:39;26.45;;;4.50;;
59786;SDS011;45672;51.612;5.536;2023-12-20T06:32:06;27.35;;;5.00;;
59786;SDS011;45672;51.612;5.536;2023-12-20T06:34:31;13.68;;;3.92;;
59786;SDS011;45672;51.612;5.536;2023-12-20T06:36:56;20.38;;;4.50;;
59786;SDS011;45672;51.612;5.536;2023-12-20T06:39:22;22.75;;;4.55;;
59786;SDS011;45672;51.612;5.536;2023-12-20T06:41:47;22.92;;;4.35;;
59786;SDS011;45672;51.612;5.536;2023-12-20T06:44:12;19.15;;;4.53;;
59786;SDS011;45672;51.612;5.536;2023-12-20T06:46:38;18.83;;;4.03;;
59786;SDS011;45672;51.612;5.536;2023-12-20T06:49:03;25.05;;;5.30;;
59786;SDS011;45672;51.612;5.536;2023-12-20T06:51:28;13.90;;;3.67;;
59786;SDS011;45672;51.612;5.536;2023-12-20T06:53:55;22.50;;;4.10;;
59786;SDS011;45672;51.612;5.536;2023-12-20T06:56:21;26.00;;;4.10;;
59786;SDS011;45672;51.612;5.536;2023-12-20T06:58:46;24.52;;;4.32;;
59786;SDS011;45672;51.612;5.536;2023-12-20T07:01:15;19.70;;;3.88;;
59786;SDS011;45672;51.612;5.536;2023-12-20T07:03:41;27.65;;;4.90;;
59786;SDS011;45672;51.612;5.536;2023-12-20T07:06:07;15.40;;;4.20;;
59786;SDS011;45672;51.612;5.536;2023-12-20T07:08:33;20.63;;;3.88;;
59786;SDS011;45672;51.612;5.536;2023-12-20T07:10:58;20.30;;;4.13;;
59786;SDS011;45672;51.612;5.536;2023-12-20T07:13:23;21.50;;;4.13;;
59786;SDS011;45672;51.612;5.536;2023-12-20T07:15:49;16.65;;;4.25;;
59786;SDS011;45672;51.612;5.536;2023-12-20T07:18:15;23.52;;;4.43;;
59786;SDS011;45672;51.612;5.536;2023-12-20T07:20:40;26.13;;;4.75;;
59786;SDS011;45672;51.612;5.536;2023-12-20T07:23:05;20.52;;;4.50;;
59786;SDS011;45672;51.612;5.536;2023-12-20T07:25:31;14.70;;;4.63;;
59786;SDS011;45672;51.612;5.536;2023-12-20T07:27:59;13.18;;;4.07;;
59786;SDS011;45672;51.612;5.536;2023-12-20T07:30:24;18.02;;;5.32;;
59786;SDS011;45672;51.612;5.536;2023-12-20T07:32:50;22.92;;;5.07;;
59786;SDS011;45672;51.612;5.536;2023-12-20T07:35:15;17.63;;;4.85;;
59786;SDS011;45672;51.612;5.536;2023-12-20T07:37:41;21.42;;;5.45;;
59786;SDS011;45672;51.612;5.536;2023-12-20T07:40:06;18.25;;;5.50;;
59786;SDS011;45672;51.612;5.536;2023-12-20T07:42:33;21.60;;;5.22;;
59786;SDS011;45672;51.612;5.536;2023-12-20T07:44:58;19.92;;;5.57;;
59786;SDS011;45672;51.612;5.536;2023-12-20T07:47:23;22.55;;;5.68;;
59786;SDS011;45672;51.612;5.536;2023-12-20T07:49:50;18.65;;;4.75;;
59786;SDS011;45672;51.612;5.536;2023-12-20T07:52:17;21.95;;;5.38;;
59786;SDS011;45672;51.612;5.536;2023-12-20T07:54:43;24.70;;;5.95;;
59786;SDS011;45672;51.612;5.536;2023-12-20T07:57:09;22.35;;;5.00;;
59786;SDS011;45672;51.612;5.536;2023-12-20T07:59:35;24.05;;;4.45;;
59786;SDS011;45672;51.612;5.536;2023-12-20T08:02:01;17.40;;;4.75;;
59786;SDS011;45672;51.612;5.536;2023-12-20T08:04:26;20.30;;;4.63;;
59786;SDS011;45672;51.612;5.536;2023-12-20T08:06:51;17.85;;;5.85;;
59786;SDS011;45672;51.612;5.536;2023-12-20T08:09:17;19.85;;;4.75;;
59786;SDS011;45672;51.612;5.536;2023-12-20T08:11:45;18.30;;;4.85;;
59786;SDS011;45672;51.612;5.536;2023-12-20T08:14:11;24.48;;;4.68;;
59786;SDS011;45672;51.612;5.536;2023-12-20T08:16:36;18.98;;;4.82;;
59786;SDS011;45672;51.612;5.536;2023-12-20T08:19:02;20.35;;;5.20;;
59786;SDS011;45672;51.612;5.536;2023-12-20T08:21:27;20.17;;;5.00;;
59786;SDS011;45672;51.612;5.536;2023-12-20T08:23:52;21.63;;;4.38;;
59786;SDS011;45672;51.612;5.536;2023-12-20T08:26:18;15.13;;;4.15;;
59786;SDS011;45672;51.612;5.536;2023-12-20T08:28:46;16.77;;;4.22;;
59786;SDS011;45672;51.612;5.536;2023-12-20T08:31:14;19.75;;;4.85;;
59786;SDS011;45672;51.612;5.536;2023-12-20T08:33:41;15.50;;;4.40;;
59786;SDS011;45672;51.612;5.536;2023-12-20T08:36:07;19.38;;;4.75;;
59786;SDS011;45672;51.612;5.536;2023-12-20T08:38:32;21.48;;;4.80;;
59786;SDS011;45672;51.612;5.536;2023-12-20T08:40:57;20.30;;;4.28;;
59786;SDS011;45672;51.612;5.536;2023-12-20T08:43:23;16.52;;;4.30;;
59786;SDS011;45672;51.612;5.536;2023-12-20T08:45:48;16.55;;;4.45;;
59786;SDS011;45672;51.612;5.536;2023-12-20T08:48:13;14.93;;;3.90;;
59786;SDS011;45672;51.612;5.536;2023-12-20T08:50:39;22.13;;;4.43;;
59786;SDS011;45672;51.612;5.536;2023-12-20T08:53:04;22.15;;;4.60;;
59786;SDS011;45672;51.612;5.536;2023-12-20T08:55:29;20.00;;;3.80;;
59786;SDS011;45672;51.612;5.536;2023-12-20T08:57:56;24.88;;;7.72;;
59786;SDS011;45672;51.612;5.536;2023-12-20T09:00:21;22.45;;;6.65;;
59786;SDS011;45672;51.612;5.536;2023-12-20T09:02:49;15.75;;;5.68;;
59786;SDS011;45672;51.612;5.536;2023-12-20T09:05:14;18.83;;;4.75;;
59786;SDS011;45672;51.612;5.536;2023-12-20T09:07:40;22.02;;;5.95;;
59786;SDS011;45672;51.612;5.536;2023-12-20T09:10:05;15.18;;;4.10;;
59786;SDS011;45672;51.612;5.536;2023-12-20T09:12:31;18.75;;;5.75;;
59786;SDS011;45672;51.612;5.536;2023-12-20T09:14:56;19.65;;;4.55;;
59786;SDS011;45672;51.612;5.536;2023-12-20T09:17:21;19.73;;;5.38;;
59786;SDS011;45672;51.612;5.536;2023-12-20T09:19:48;18.42;;;4.38;;
59786;SDS011;45672;51.612;5.536;2023-12-20T09:22:13;19.90;;;4.97;;
59786;SDS011;45672;51.612;5.536;2023-12-20T09:24:39;16.70;;;4.47;;
59786;SDS011;45672;51.612;5.536;2023-12-20T09:27:07;21.65;;;4.78;;
59786;SDS011;45672;51.612;5.536;2023-12-20T09:29:32;19.83;;;7.32;;
59786;SDS011;45672;51.612;5.536;2023-12-20T09:31:58;17.55;;;4.30;;
59786;SDS011;45672;51.612;5.536;2023-12-20T09:34:23;15.43;;;4.03;;
59786;SDS011;45672;51.612;5.536;2023-12-20T09:36:50;12.70;;;4.18;;
59786;SDS011;45672;51.612;5.536;2023-12-20T09:39:17;13.57;;;3.40;;
59786;SDS011;45672;51.612;5.536;2023-12-20T09:44:27;13.82;;;3.70;;
59786;SDS011;45672;51.612;5.536;2023-12-20T09:46:54;22.90;;;5.07;;
59786;SDS011;45672;51.612;5.536;2023-12-20T09:49:21;12.20;;;3.28;;
59786;SDS011;45672;51.612;5.536;2023-12-20T09:51:47;18.92;;;4.15;;
59786;SDS011;45672;51.612;5.536;2023-12-20T09:54:16;17.15;;;7.18;;
59786;SDS011;45672;51.612;5.536;2023-12-20T09:56:42;10.95;;;4.00;;
59786;SDS011;45672;51.612;5.536;2023-12-20T09:59:08;11.30;;;3.42;;
59786;SDS011;45672;51.612;5.536;2023-12-20T10:01:34;10.13;;;4.30;;
59786;SDS011;45672;51.612;5.536;2023-12-20T10:04:00;18.02;;;4.70;;
59786;SDS011;45672;51.612;5.536;2023-12-20T10:06:27;19.98;;;5.82;;
59786;SDS011;45672;51.612;5.536;2023-12-20T10:08:52;18.67;;;5.18;;
59786;SDS011;45672;51.612;5.536;2023-12-20T10:11:18;18.50;;;5.82;;
59786;SDS011;45672;51.612;5.536;2023-12-20T10:13:44;14.65;;;5.85;;
59786;SDS011;45672;51.612;5.536;2023-12-20T10:16:13;26.38;;;4.30;;
59786;SDS011;45672;51.612;5.536;2023-12-20T10:18:38;13.18;;;5.20;;
59786;SDS011;45672;51.612;5.536;2023-12-20T10:21:04;13.13;;;4.32;;
59786;SDS011;45672;51.612;5.536;2023-12-20T10:23:31;21.25;;;5.80;;
59786;SDS011;45672;51.612;5.536;2023-12-20T10:25:57;11.55;;;3.88;;
59786;SDS011;45672;51.612;5.536;2023-12-20T10:28:23;9.18;;;3.58;;
59786;SDS011;45672;51.612;5.536;2023-12-20T10:30:52;7.93;;;3.10;;
59786;SDS011;45672;51.612;5.536;2023-12-20T10:33:25;12.23;;;4.07;;
59786;SDS011;45672;51.612;5.536;2023-12-20T10:35:52;18.98;;;4.05;;
59786;SDS011;45672;51.612;5.536;2023-12-20T10:38:18;16.88;;;3.97;;
59786;SDS011;45672;51.612;5.536;2023-12-20T10:40:45;14.15;;;3.85;;
59786;SDS011;45672;51.612;5.536;2023-12-20T10:43:11;9.63;;;3.38;;
59786;SDS011;45672;51.612;5.536;2023-12-20T10:45:36;12.10;;;3.92;;
59786;SDS011;45672;51.612;5.536;2023-12-20T10:48:02;11.57;;;4.13;;
59786;SDS011;45672;51.612;5.536;2023-12-20T10:50:29;20.88;;;4.25;;
59786;SDS011;45672;51.612;5.536;2023-12-20T10:52:55;16.25;;;3.90;;
59786;SDS011;45672;51.612;5.536;2023-12-20T10:55:24;21.90;;;4.47;;
59786;SDS011;45672;51.612;5.536;2023-12-20T10:57:50;6.28;;;2.92;;
59786;SDS011;45672;51.612;5.536;2023-12-20T11:00:17;23.65;;;4.10;;
59786;SDS011;45672;51.612;5.536;2023-12-20T11:02:43;8.05;;;3.10;;
59786;SDS011;45672;51.612;5.536;2023-12-20T11:05:18;13.75;;;4.13;;
59786;SDS011;45672;51.612;5.536;2023-12-20T11:13:26;18.80;;;3.88;;
59786;SDS011;45672;51.612;5.536;2023-12-20T11:15:56;14.05;;;3.50;;
59786;SDS011;45672;51.612;5.536;2023-12-20T11:18:28;22.52;;;3.88;;
59786;SDS011;45672;51.612;5.536;2023-12-20T11:20:55;24.20;;;6.97;;
59786;SDS011;45672;51.612;5.536;2023-12-20T11:23:25;30.23;;;9.85;;
59786;SDS011;45672;51.612;5.536;2023-12-20T11:25:54;22.30;;;4.75;;
59786;SDS011;45672;51.612;5.536;2023-12-20T11:28:24;19.80;;;4.75;;
59786;SDS011;45672;51.612;5.536;2023-12-20T11:30:54;17.65;;;4.07;;
59786;SDS011;45672;51.612;5.536;2023-12-20T11:33:36;27.67;;;4.90;;
59786;SDS011;45672;51.612;5.536;2023-12-20T11:36:02;24.45;;;5.53;;
59786;SDS011;45672;51.612;5.536;2023-12-20T11:38:38;14.82;;;4.60;;
59786;SDS011;45672;51.612;5.536;2023-12-20T11:41:06;16.13;;;4.00;;
59786;SDS011;45672;51.612;5.536;2023-12-20T11:43:32;21.23;;;4.20;;
59786;SDS011;45672;51.612;5.536;2023-12-20T11:48:30;19.08;;;4.00;;
59786;SDS011;45672;51.612;5.536;2023-12-20T11:50:57;18.55;;;3.70;;
59786;SDS011;45672;51.612;5.536;2023-12-20T11:53:22;11.57;;;3.70;;
59786;SDS011;45672;51.612;5.536;2023-12-20T11:55:48;18.63;;;4.18;;
59786;SDS011;45672;51.612;5.536;2023-12-20T11:58:14;21.67;;;4.30;;
59786;SDS011;45672;51.612;5.536;2023-12-20T12:00:41;19.75;;;4.90;;
59786;SDS011;45672;51.612;5.536;2023-12-20T12:03:09;16.52;;;4.13;;
59786;SDS011;45672;51.612;5.536;2023-12-20T12:05:35;16.67;;;4.60;;
59786;SDS011;45672;51.612;5.536;2023-12-20T12:08:01;14.52;;;3.55;;
59786;SDS011;45672;51.612;5.536;2023-12-20T12:10:27;13.52;;;4.47;;
59786;SDS011;45672;51.612;5.536;2023-12-20T12:12:53;19.70;;;4.63;;
59786;SDS011;45672;51.612;5.536;2023-12-20T12:15:19;18.92;;;4.90;;
59786;SDS011;45672;51.612;5.536;2023-12-20T12:17:52;18.42;;;4.30;;
59786;SDS011;45672;51.612;5.536;2023-12-20T12:20:19;18.73;;;4.53;;
59786;SDS011;45672;51.612;5.536;2023-12-20T12:22:45;25.63;;;6.65;;
59786;SDS011;45672;51.612;5.536;2023-12-20T12:25:12;26.48;;;7.13;;
59786;SDS011;45672;51.612;5.536;2023-12-20T12:27:39;18.70;;;4.10;;
59786;SDS011;45672;51.612;5.536;2023-12-20T12:30:05;17.88;;;3.90;;
59786;SDS011;45672;51.612;5.536;2023-12-20T12:32:34;22.10;;;4.28;;
59786;SDS011;45672;51.612;5.536;2023-12-20T12:35:02;21.92;;;5.68;;
59786;SDS011;45672;51.612;5.536;2023-12-20T12:37:29;26.52;;;5.65;;
59786;SDS011;45672;51.612;5.536;2023-12-20T12:39:54;18.25;;;3.95;;
59786;SDS011;45672;51.612;5.536;2023-12-20T12:42:20;18.23;;;3.67;;
59786;SDS011;45672;51.612;5.536;2023-12-20T12:44:46;23.38;;;7.70;;
59786;SDS011;45672;51.612;5.536;2023-12-20T12:47:12;17.40;;;6.10;;
59786;SDS011;45672;51.612;5.536;2023-12-20T12:49:37;20.38;;;5.40;;
59786;SDS011;45672;51.612;5.536;2023-12-20T12:52:02;18.63;;;5.00;;
59786;SDS011;45672;51.612;5.536;2023-12-20T12:54:28;21.83;;;7.78;;
59786;SDS011;45672;51.612;5.536;2023-12-20T12:56:53;25.33;;;8.25;;
59786;SDS011;45672;51.612;5.536;2023-12-20T12:59:19;22.08;;;5.13;;
59786;SDS011;45672;51.612;5.536;2023-12-20T13:01:44;12.95;;;3.85;;
59786;SDS011;45672;51.612;5.536;2023-12-20T13:04:10;25.88;;;5.00;;
59786;SDS011;45672;51.612;5.536;2023-12-20T13:06:39;20.10;;;5.22;;
59786;SDS011;45672;51.612;5.536;2023-12-20T13:09:06;19.25;;;8.18;;
59786;SDS011;45672;51.612;5.536;2023-12-20T13:11:31;18.50;;;5.00;;
59786;SDS011;45672;51.612;5.536;2023-12-20T13:13:58;18.88;;;7.18;;
59786;SDS011;45672;51.612;5.536;2023-12-20T13:16:24;20.67;;;5.85;;
59786;SDS011;45672;51.612;5.536;2023-12-20T13:18:49;20.60;;;6.60;;
59786;SDS011;45672;51.612;5.536;2023-12-20T13:21:15;20.13;;;6.35;;
59786;SDS011;45672;51.612;5.536;2023-12-20T13:23:41;23.92;;;7.00;;
59786;SDS011;45672;51.612;5.536;2023-12-20T13:26:06;18.85;;;7.10;;
59786;SDS011;45672;51.612;5.536;2023-12-20T13:28:32;20.85;;;6.53;;
59786;SDS011;45672;51.612;5.536;2023-12-20T13:30:57;21.85;;;6.30;;
59786;SDS011;45672;51.612;5.536;2023-12-20T13:33:23;17.08;;;6.10;;
59786;SDS011;45672;51.612;5.536;2023-12-20T13:35:48;19.00;;;4.57;;
59786;SDS011;45672;51.612;5.536;2023-12-20T13:38:14;14.88;;;5.22;;
59786;SDS011;45672;51.612;5.536;2023-12-20T13:40:39;21.58;;;4.78;;
59786;SDS011;45672;51.612;5.536;2023-12-20T13:43:05;25.58;;;8.38;;
59786;SDS011;45672;51.612;5.536;2023-12-20T13:45:31;23.02;;;5.75;;
59786;SDS011;45672;51.612;5.536;2023-12-20T13:47:56;22.27;;;4.97;;
59786;SDS011;45672;51.612;5.536;2023-12-20T13:50:21;18.90;;;4.80;;
59786;SDS011;45672;51.612;5.536;2023-12-20T13:52:47;14.88;;;4.95;;
59786;SDS011;45672;51.612;5.536;2023-12-20T13:55:13;18.70;;;4.82;;
59786;SDS011;45672;51.612;5.536;2023-12-20T13:57:38;20.17;;;5.35;;
59786;SDS011;45672;51.612;5.536;2023-12-20T14:00:05;21.25;;;5.07;;
59786;SDS011;45672;51.612;5.536;2023-12-20T14:02:30;17.88;;;3.95;;
59786;SDS011;45672;51.612;5.536;2023-12-20T14:04:56;16.15;;;3.95;;
59786;SDS011;45672;51.612;5.536;2023-12-20T14:07:21;22.23;;;4.70;;
59786;SDS011;45672;51.612;5.536;2023-12-20T14:09:46;24.80;;;6.90;;
59786;SDS011;45672;51.612;5.536;2023-12-20T14:12:12;16.92;;;4.70;;
59786;SDS011;45672;51.612;5.536;2023-12-20T14:14:38;21.08;;;4.03;;
59786;SDS011;45672;51.612;5.536;2023-12-20T14:17:03;20.67;;;4.38;;
59786;SDS011;45672;51.612;5.536;2023-12-20T14:19:31;19.27;;;4.57;;
59786;SDS011;45672;51.612;5.536;2023-12-20T14:21:57;16.48;;;4.13;;
59786;SDS011;45672;51.612;5.536;2023-12-20T14:24:26;15.45;;;4.18;;
59786;SDS011;45672;51.612;5.536;2023-12-20T14:26:51;13.10;;;4.18;;
59786;SDS011;45672;51.612;5.536;2023-12-20T14:29:16;21.67;;;6.28;;
59786;SDS011;45672;51.612;5.536;2023-12-20T14:31:42;18.85;;;4.82;;
59786;SDS011;45672;51.612;5.536;2023-12-20T14:34:07;11.20;;;3.40;;
59786;SDS011;45672;51.612;5.536;2023-12-20T14:36:33;21.98;;;5.18;;
59786;SDS011;45672;51.612;5.536;2023-12-20T14:38:59;22.48;;;5.47;;